AFR6934 LFML-GOBD
Flight info
| Callsign | AFR6934 |
|---|---|
| Flight time | 5h 7m |
| Altitude | 31000 |
| Route | MAMES DCT BISBA DCT BGR DCT NENDA/N0444F330 DCT BCN DCT RODRA DCT PEXOT DCT EBROX DCT LOTOS DCT TORDU DCT DIKUT DCT SOPET DCT VLC DCT SERRA DCT ASTRO DCT POBOS DCT XEBAR DCT YES DCT MAMIS DCT BAZAS DCT VIBAS DCT MGA DCT PIMOS DCT GALTO UN869 PELAX UB11 MABAP UN869 ADM UR975 DIDAN/N0446F340 UR975 ZRT DCT MINBA DCT SEPEL UR975 SAKLI SAKLI1A |
| Aircraft | B738/M-SDE2E3FGHIRWXY/LB1 |
Departure
| Time | 2026-04-25 18:00 |
|---|---|
| Airport | Marseille Provence Airport (LFML) |
Arrival
| Time | 2026-04-25 23:07 |
|---|---|
| Airport | Blaise Diagne International Airport (GOBD) |
| Time | Latitude | Longitude | Altitude | Speed | Heading |
|---|---|---|---|---|---|
| 2026-04-25 17:27 | 43.44056 | 5.22084 | 37 ft | 0 kts | 50° |
| 2026-04-25 17:48 | 43.44043 | 5.22063 | 37 ft | 4 kts | 50° |
| 2026-04-25 17:48 | 43.44029 | 5.22040 | 37 ft | 4 kts | 46° |
| 2026-04-25 17:48 | 43.44009 | 5.22022 | 36 ft | 4 kts | 355° |
| 2026-04-25 17:49 | 43.43989 | 5.22036 | 38 ft | 4 kts | 315° |
| 2026-04-25 17:49 | 43.43979 | 5.22050 | 38 ft | 1 kts | 315° |
| 2026-04-25 17:52 | 43.43981 | 5.22047 | 37 ft | 2 kts | 314° |
| 2026-04-25 17:53 | 43.44008 | 5.22007 | 36 ft | 11 kts | 314° |
| 2026-04-25 17:53 | 43.44071 | 5.21920 | 34 ft | 14 kts | 320° |
| 2026-04-25 17:53 | 43.44111 | 5.21814 | 30 ft | 13 kts | 248° |
| 2026-04-25 17:53 | 43.44048 | 5.21726 | 31 ft | 13 kts | 225° |
| 2026-04-25 17:54 | 43.43985 | 5.21642 | 30 ft | 12 kts | 223° |
| 2026-04-25 17:54 | 43.43926 | 5.21558 | 31 ft | 12 kts | 243° |
| 2026-04-25 17:54 | 43.43945 | 5.21455 | 29 ft | 12 kts | 315° |
| 2026-04-25 17:54 | 43.43999 | 5.21373 | 29 ft | 12 kts | 313° |
| 2026-04-25 17:55 | 43.44055 | 5.21294 | 27 ft | 12 kts | 314° |
| 2026-04-25 17:55 | 43.44122 | 5.21196 | 27 ft | 17 kts | 313° |
| 2026-04-25 17:55 | 43.44208 | 5.21075 | 22 ft | 18 kts | 309° |
| 2026-04-25 17:55 | 43.44285 | 5.20943 | 18 ft | 17 kts | 300° |
| 2026-04-25 17:56 | 43.44348 | 5.20806 | 17 ft | 17 kts | 314° |
| 2026-04-25 17:56 | 43.44428 | 5.20693 | 18 ft | 16 kts | 314° |
| 2026-04-25 17:56 | 43.44504 | 5.20584 | 17 ft | 15 kts | 314° |
| 2026-04-25 17:56 | 43.44577 | 5.20479 | 17 ft | 15 kts | 314° |
| 2026-04-25 17:57 | 43.44648 | 5.20380 | 17 ft | 14 kts | 313° |
| 2026-04-25 17:57 | 43.44717 | 5.20280 | 18 ft | 15 kts | 315° |
| 2026-04-25 17:57 | 43.44796 | 5.20169 | 18 ft | 18 kts | 314° |
| 2026-04-25 17:57 | 43.44825 | 5.20127 | 18 ft | 19 kts | 313° |
| 2026-04-25 17:58 | 43.44979 | 5.19901 | 17 ft | 19 kts | 297° |
| 2026-04-25 17:58 | 43.44944 | 5.19795 | 16 ft | 10 kts | 218° |
| 2026-04-25 17:58 | 43.44891 | 5.19763 | 17 ft | 4 kts | 154° |
| 2026-04-25 17:58 | 43.44879 | 5.19780 | 17 ft | 2 kts | 133° |
| 2026-04-25 17:59 | 43.44860 | 5.19807 | 18 ft | 11 kts | 134° |
| 2026-04-25 17:59 | 43.44639 | 5.20120 | 18 ft | 81 kts | 134° |
| 2026-04-25 17:59 | 43.44096 | 5.20898 | 19 ft | 142 kts | 134° |
| 2026-04-25 17:59 | 43.43304 | 5.22015 | 243 ft | 174 kts | 135° |
| 2026-04-25 18:00 | 43.42750 | 5.22813 | 738 ft | 175 kts | 134° |
| 2026-04-25 18:00 | 43.41487 | 5.24201 | 1749 ft | 177 kts | 159° |
| 2026-04-25 18:00 | 43.40372 | 5.24898 | 2520 ft | 178 kts | 151° |
| 2026-04-25 18:00 | 43.39282 | 5.25802 | 3140 ft | 187 kts | 149° |
| 2026-04-25 18:01 | 43.38128 | 5.26782 | 3560 ft | 208 kts | 149° |
| 2026-04-25 18:01 | 43.36879 | 5.27865 | 3927 ft | 218 kts | 148° |
| 2026-04-25 18:01 | 43.35495 | 5.28826 | 4350 ft | 227 kts | 169° |
| 2026-04-25 18:01 | 43.33937 | 5.28683 | 4892 ft | 228 kts | 201° |
| 2026-04-25 18:02 | 43.32600 | 5.27454 | 5256 ft | 242 kts | 230° |
| 2026-04-25 18:02 | 43.31647 | 5.25504 | 5675 ft | 251 kts | 239° |
| 2026-04-25 18:02 | 43.30692 | 5.23371 | 5933 ft | 274 kts | 238° |
| 2026-04-25 18:02 | 43.29659 | 5.21154 | 6632 ft | 277 kts | 237° |
| 2026-04-25 18:03 | 43.28592 | 5.18942 | 7402 ft | 279 kts | 237° |
| 2026-04-25 18:03 | 43.27504 | 5.16719 | 8134 ft | 282 kts | 237° |
| 2026-04-25 18:03 | 43.26397 | 5.14472 | 8826 ft | 286 kts | 237° |
| 2026-04-25 18:03 | 43.25277 | 5.12208 | 9543 ft | 289 kts | 237° |
| 2026-04-25 18:04 | 43.24141 | 5.09915 | 10231 ft | 292 kts | 237° |
| 2026-04-25 18:04 | 43.22963 | 5.07543 | 10502 ft | 312 kts | 237° |
| 2026-04-25 18:04 | 43.21696 | 5.04996 | 10679 ft | 333 kts | 237° |
| 2026-04-25 18:04 | 43.20343 | 5.02300 | 10844 ft | 353 kts | 236° |
| 2026-04-25 18:05 | 43.18809 | 4.99591 | 11222 ft | 365 kts | 232° |
| 2026-04-25 18:05 | 43.17175 | 4.96889 | 11816 ft | 369 kts | 232° |
| 2026-04-25 18:05 | 43.15523 | 4.94185 | 12457 ft | 372 kts | 232° |
| 2026-04-25 18:05 | 43.13860 | 4.91445 | 13075 ft | 376 kts | 232° |
| 2026-04-25 18:06 | 43.12191 | 4.88675 | 13700 ft | 379 kts | 232° |
| 2026-04-25 18:06 | 43.10511 | 4.85870 | 14337 ft | 383 kts | 232° |
| 2026-04-25 18:06 | 43.08818 | 4.83040 | 14987 ft | 386 kts | 232° |
| 2026-04-25 18:06 | 43.07109 | 4.80185 | 15625 ft | 390 kts | 232° |
| 2026-04-25 18:07 | 43.05332 | 4.77371 | 16231 ft | 394 kts | 225° |
| 2026-04-25 18:07 | 43.03135 | 4.75074 | 16841 ft | 399 kts | 216° |
| 2026-04-25 18:07 | 43.00816 | 4.72959 | 17436 ft | 403 kts | 215° |
| 2026-04-25 18:07 | 42.98465 | 4.70854 | 17992 ft | 407 kts | 214° |
| 2026-04-25 18:08 | 42.96091 | 4.68725 | 18544 ft | 410 kts | 215° |
| 2026-04-25 18:08 | 42.93703 | 4.66563 | 19096 ft | 413 kts | 215° |
| 2026-04-25 18:08 | 42.91306 | 4.64372 | 19632 ft | 416 kts | 215° |
| 2026-04-25 18:08 | 42.88932 | 4.62184 | 20171 ft | 419 kts | 215° |
| 2026-04-25 18:09 | 42.86478 | 4.59919 | 20694 ft | 422 kts | 215° |
| 2026-04-25 18:09 | 42.84069 | 4.57693 | 21142 ft | 425 kts | 215° |
| 2026-04-25 18:09 | 42.81575 | 4.55389 | 21587 ft | 430 kts | 215° |
| 2026-04-25 18:09 | 42.80771 | 4.54646 | 21724 ft | 431 kts | 215° |
| 2026-04-25 18:10 | 42.77436 | 4.51568 | 22319 ft | 435 kts | 215° |
| 2026-04-25 18:10 | 42.74106 | 4.48497 | 22903 ft | 438 kts | 215° |
| 2026-04-25 18:10 | 42.71543 | 4.46138 | 23339 ft | 441 kts | 215° |
| 2026-04-25 18:10 | 42.69027 | 4.43825 | 23745 ft | 444 kts | 215° |
| 2026-04-25 18:11 | 42.66460 | 4.41467 | 24134 ft | 447 kts | 215° |
| 2026-04-25 18:11 | 42.63882 | 4.39101 | 24516 ft | 449 kts | 215° |
| 2026-04-25 18:11 | 42.61285 | 4.36720 | 24903 ft | 451 kts | 215° |
| 2026-04-25 18:11 | 42.58678 | 4.34332 | 25298 ft | 453 kts | 215° |
| 2026-04-25 18:12 | 42.56056 | 4.31934 | 25665 ft | 455 kts | 215° |
| 2026-04-25 18:12 | 42.53437 | 4.29540 | 26165 ft | 454 kts | 215° |
| 2026-04-25 18:12 | 42.50819 | 4.27149 | 26644 ft | 453 kts | 215° |
| 2026-04-25 18:12 | 42.48205 | 4.24765 | 26986 ft | 455 kts | 215° |
| 2026-04-25 18:13 | 42.45568 | 4.22362 | 27266 ft | 459 kts | 215° |
| 2026-04-25 18:13 | 42.42909 | 4.19942 | 27558 ft | 461 kts | 215° |
| 2026-04-25 18:13 | 42.40243 | 4.17518 | 27891 ft | 463 kts | 215° |
| 2026-04-25 18:14 | 42.34879 | 4.12648 | 28501 ft | 466 kts | 215° |
| 2026-04-25 18:14 | 42.32182 | 4.10203 | 28881 ft | 466 kts | 215° |
| 2026-04-25 18:14 | 42.29494 | 4.07768 | 29341 ft | 464 kts | 215° |
| 2026-04-25 18:14 | 42.26822 | 4.05350 | 29771 ft | 462 kts | 215° |
| 2026-04-25 18:15 | 42.24155 | 4.02941 | 30153 ft | 461 kts | 216° |
| 2026-04-25 18:15 | 42.21621 | 4.00310 | 30459 ft | 459 kts | 228° |
| 2026-04-25 18:15 | 42.19756 | 3.96877 | 30822 ft | 453 kts | 245° |
| 2026-04-25 18:15 | 42.18462 | 3.93027 | 31260 ft | 448 kts | 249° |
| 2026-04-25 18:16 | 42.17249 | 3.89168 | 31602 ft | 448 kts | 249° |
| 2026-04-25 18:16 | 42.16033 | 3.85299 | 31895 ft | 448 kts | 248° |
| 2026-04-25 18:16 | 42.13555 | 3.77610 | 32553 ft | 446 kts | 248° |
| 2026-04-25 18:17 | 42.12302 | 3.73800 | 32908 ft | 445 kts | 247° |
| 2026-04-25 18:17 | 42.11044 | 3.69990 | 33075 ft | 447 kts | 247° |
| 2026-04-25 18:17 | 42.09774 | 3.66151 | 33070 ft | 449 kts | 247° |
| 2026-04-25 18:18 | 42.07240 | 3.58484 | 33066 ft | 445 kts | 247° |
| 2026-04-25 18:18 | 42.04765 | 3.50972 | 33070 ft | 441 kts | 247° |
| 2026-04-25 18:19 | 42.02278 | 3.43429 | 33077 ft | 441 kts | 247° |
| 2026-04-25 18:19 | 41.99786 | 3.35900 | 33075 ft | 441 kts | 247° |
| 2026-04-25 18:20 | 41.97285 | 3.28364 | 33074 ft | 442 kts | 247° |
| 2026-04-25 18:20 | 41.94706 | 3.20874 | 33069 ft | 443 kts | 241° |
| 2026-04-25 18:21 | 41.91079 | 3.14163 | 33075 ft | 445 kts | 232° |
| 2026-04-25 18:21 | 41.87234 | 3.07641 | 33076 ft | 446 kts | 233° |
| 2026-04-25 18:22 | 41.83418 | 3.01083 | 33075 ft | 447 kts | 233° |
| 2026-04-25 18:22 | 41.79615 | 2.94491 | 33071 ft | 447 kts | 233° |
| 2026-04-25 18:23 | 41.75811 | 2.87898 | 33077 ft | 447 kts | 233° |
| 2026-04-25 18:23 | 41.72001 | 2.81309 | 33073 ft | 448 kts | 233° |
| 2026-04-25 18:24 | 41.68183 | 2.74730 | 33079 ft | 448 kts | 233° |
| 2026-04-25 18:24 | 41.64364 | 2.68161 | 33082 ft | 447 kts | 233° |
| 2026-04-25 18:25 | 41.60545 | 2.61604 | 33083 ft | 447 kts | 233° |
| 2026-04-25 18:25 | 41.57367 | 2.56158 | 33097 ft | 447 kts | 233° |
| 2026-04-25 18:26 | 41.53551 | 2.49627 | 33090 ft | 446 kts | 233° |
| 2026-04-25 18:26 | 41.49737 | 2.43111 | 33099 ft | 445 kts | 233° |
| 2026-04-25 18:27 | 41.45924 | 2.36613 | 33102 ft | 445 kts | 233° |
| 2026-04-25 18:27 | 41.42112 | 2.30130 | 33100 ft | 444 kts | 233° |
| 2026-04-25 18:28 | 41.38305 | 2.23667 | 33104 ft | 443 kts | 233° |
| 2026-04-25 18:28 | 41.34496 | 2.17218 | 33099 ft | 443 kts | 233° |
| 2026-04-25 18:29 | 41.28686 | 2.07644 | 33101 ft | 444 kts | 229° |
| 2026-04-25 18:30 | 41.20379 | 1.95494 | 33104 ft | 445 kts | 229° |
| 2026-04-25 18:30 | 41.16234 | 1.89394 | 33101 ft | 445 kts | 229° |
| 2026-04-25 18:31 | 41.12086 | 1.83277 | 33101 ft | 446 kts | 229° |
| 2026-04-25 18:31 | 41.07967 | 1.77213 | 33102 ft | 446 kts | 229° |
| 2026-04-25 18:32 | 41.03816 | 1.71118 | 33102 ft | 446 kts | 229° |
| 2026-04-25 18:32 | 40.99655 | 1.65019 | 33101 ft | 446 kts | 229° |
| 2026-04-25 18:33 | 40.95500 | 1.58932 | 33102 ft | 446 kts | 228° |
| 2026-04-25 18:33 | 40.91339 | 1.52846 | 33102 ft | 446 kts | 228° |
| 2026-04-25 18:34 | 40.87172 | 1.46763 | 33102 ft | 446 kts | 228° |
| 2026-04-25 18:34 | 40.82996 | 1.40695 | 33102 ft | 446 kts | 228° |
| 2026-04-25 18:35 | 40.78814 | 1.34641 | 33101 ft | 446 kts | 228° |
| 2026-04-25 18:35 | 40.74634 | 1.28594 | 33103 ft | 446 kts | 228° |
| 2026-04-25 18:36 | 40.70452 | 1.22556 | 33101 ft | 446 kts | 228° |
| 2026-04-25 18:36 | 40.66270 | 1.16522 | 33101 ft | 446 kts | 228° |
| 2026-04-25 18:37 | 40.62088 | 1.10493 | 33101 ft | 446 kts | 228° |
| 2026-04-25 18:37 | 40.57906 | 1.04476 | 33102 ft | 446 kts | 228° |
| 2026-04-25 18:38 | 40.53715 | 0.98463 | 33100 ft | 446 kts | 227° |
| 2026-04-25 18:38 | 40.49516 | 0.92467 | 33102 ft | 446 kts | 227° |
| 2026-04-25 18:39 | 40.45315 | 0.86481 | 33101 ft | 445 kts | 227° |
| 2026-04-25 18:39 | 40.41109 | 0.80496 | 33102 ft | 446 kts | 227° |
| 2026-04-25 18:40 | 40.36907 | 0.74526 | 33101 ft | 446 kts | 227° |
| 2026-04-25 18:40 | 40.32698 | 0.68559 | 33103 ft | 446 kts | 227° |
| 2026-04-25 18:41 | 40.28505 | 0.62623 | 33101 ft | 446 kts | 227° |
| 2026-04-25 18:41 | 40.24253 | 0.56623 | 33102 ft | 447 kts | 227° |
| 2026-04-25 18:42 | 40.20736 | 0.51672 | 33102 ft | 447 kts | 227° |
| 2026-04-25 18:42 | 40.15808 | 0.44747 | 33112 ft | 447 kts | 227° |
| 2026-04-25 18:43 | 40.11559 | 0.38789 | 33111 ft | 448 kts | 227° |
| 2026-04-25 18:43 | 40.07312 | 0.32839 | 33111 ft | 448 kts | 227° |
| 2026-04-25 18:44 | 40.03056 | 0.26890 | 33108 ft | 448 kts | 227° |
| 2026-04-25 18:44 | 39.98798 | 0.20949 | 33112 ft | 448 kts | 227° |
| 2026-04-25 18:45 | 39.94540 | 0.15007 | 33113 ft | 449 kts | 227° |
| 2026-04-25 18:45 | 39.90281 | 0.09070 | 33110 ft | 448 kts | 227° |
| 2026-04-25 18:46 | 39.86020 | 0.03140 | 33112 ft | 448 kts | 227° |
| 2026-04-25 18:46 | 39.81760 | -0.02771 | 33106 ft | 448 kts | 227° |
| 2026-04-25 18:47 | 39.77482 | -0.08679 | 33110 ft | 449 kts | 226° |
| 2026-04-25 18:47 | 39.73195 | -0.14587 | 33106 ft | 450 kts | 225° |
| 2026-04-25 18:48 | 39.68898 | -0.20501 | 33099 ft | 450 kts | 225° |
| 2026-04-25 18:48 | 39.64598 | -0.26410 | 33103 ft | 450 kts | 225° |
| 2026-04-25 18:49 | 39.60293 | -0.32317 | 33101 ft | 451 kts | 225° |
| 2026-04-25 18:49 | 39.55980 | -0.38219 | 33101 ft | 450 kts | 225° |
| 2026-04-25 18:50 | 39.51671 | -0.44109 | 33102 ft | 450 kts | 225° |
| 2026-04-25 18:50 | 39.47437 | -0.50070 | 33100 ft | 450 kts | 230° |
| 2026-04-25 18:51 | 39.44284 | -0.55421 | 33108 ft | 450 kts | 232° |
| 2026-04-25 18:51 | 39.39963 | -0.62982 | 33101 ft | 449 kts | 232° |
| 2026-04-25 18:52 | 39.36200 | -0.69435 | 33101 ft | 449 kts | 232° |
| 2026-04-25 18:52 | 39.32417 | -0.75852 | 33104 ft | 449 kts | 231° |
| 2026-04-25 18:53 | 39.28632 | -0.82260 | 33112 ft | 449 kts | 231° |
| 2026-04-25 18:53 | 39.24844 | -0.88662 | 33112 ft | 449 kts | 231° |
| 2026-04-25 18:54 | 39.19153 | -0.98239 | 33113 ft | 449 kts | 231° |
| 2026-04-25 18:55 | 39.15355 | -1.04621 | 33113 ft | 449 kts | 231° |
| 2026-04-25 18:55 | 39.11549 | -1.11003 | 33112 ft | 449 kts | 231° |
| 2026-04-25 18:56 | 39.07738 | -1.17382 | 33121 ft | 450 kts | 231° |
| 2026-04-25 18:56 | 39.03923 | -1.23757 | 33118 ft | 450 kts | 231° |
| 2026-04-25 18:57 | 39.00102 | -1.30131 | 33120 ft | 450 kts | 231° |
| 2026-04-25 18:57 | 38.96285 | -1.36496 | 33122 ft | 450 kts | 231° |
| 2026-04-25 18:58 | 38.92460 | -1.42867 | 33118 ft | 450 kts | 231° |
| 2026-04-25 18:58 | 38.86725 | -1.52394 | 33125 ft | 449 kts | 231° |
| 2026-04-25 18:59 | 38.79065 | -1.65075 | 33129 ft | 449 kts | 231° |
| 2026-04-25 19:00 | 38.73346 | -1.74516 | 33128 ft | 449 kts | 230° |
| 2026-04-25 19:01 | 38.67569 | -1.84008 | 33130 ft | 449 kts | 230° |
| 2026-04-25 19:01 | 38.63754 | -1.90261 | 33128 ft | 449 kts | 230° |
| 2026-04-25 19:02 | 38.57985 | -1.99698 | 33122 ft | 449 kts | 230° |
| 2026-04-25 19:03 | 38.53477 | -2.07055 | 33116 ft | 449 kts | 230° |
| 2026-04-25 19:03 | 38.48344 | -2.15413 | 33124 ft | 449 kts | 230° |
| 2026-04-25 19:04 | 38.42550 | -2.24838 | 33117 ft | 450 kts | 230° |
| 2026-04-25 19:05 | 38.34738 | -2.37333 | 33108 ft | 449 kts | 226° |
| 2026-04-25 19:06 | 38.30457 | -2.43103 | 33108 ft | 448 kts | 224° |
| 2026-04-25 19:06 | 38.23939 | -2.51643 | 33107 ft | 448 kts | 224° |
| 2026-04-25 19:07 | 38.17480 | -2.60255 | 33105 ft | 449 kts | 224° |
| 2026-04-25 19:08 | 38.11014 | -2.68888 | 33090 ft | 449 kts | 224° |
| 2026-04-25 19:09 | 38.03818 | -2.78464 | 33090 ft | 449 kts | 224° |
| 2026-04-25 19:10 | 37.95915 | -2.88949 | 33085 ft | 450 kts | 224° |
| 2026-04-25 19:10 | 37.91576 | -2.94670 | 33082 ft | 450 kts | 224° |
| 2026-04-25 19:11 | 37.87229 | -3.00380 | 33081 ft | 451 kts | 224° |
| 2026-04-25 19:11 | 37.83610 | -3.05128 | 33082 ft | 451 kts | 224° |
| 2026-04-25 19:12 | 37.79253 | -3.10840 | 33068 ft | 452 kts | 224° |
| 2026-04-25 19:12 | 37.74887 | -3.16555 | 33064 ft | 452 kts | 224° |
| 2026-04-25 19:13 | 37.70507 | -3.22283 | 33068 ft | 453 kts | 224° |
| 2026-04-25 19:13 | 37.66131 | -3.28017 | 33063 ft | 454 kts | 224° |
| 2026-04-25 19:14 | 37.61748 | -3.33753 | 33065 ft | 454 kts | 224° |
| 2026-04-25 19:14 | 37.57352 | -3.39496 | 33065 ft | 455 kts | 224° |
| 2026-04-25 19:15 | 37.52954 | -3.45232 | 33067 ft | 455 kts | 224° |
| 2026-04-25 19:15 | 37.48551 | -3.50961 | 33067 ft | 456 kts | 224° |
| 2026-04-25 19:16 | 37.44144 | -3.56687 | 33070 ft | 455 kts | 224° |
| 2026-04-25 19:16 | 37.39736 | -3.62402 | 33076 ft | 455 kts | 224° |
| 2026-04-25 19:17 | 37.35356 | -3.68063 | 33073 ft | 454 kts | 224° |
| 2026-04-25 19:17 | 37.30951 | -3.73744 | 33076 ft | 454 kts | 224° |
| 2026-04-25 19:18 | 37.26543 | -3.79420 | 33076 ft | 453 kts | 224° |
| 2026-04-25 19:18 | 37.22139 | -3.85076 | 33072 ft | 453 kts | 224° |
| 2026-04-25 19:19 | 37.17739 | -3.90727 | 33072 ft | 453 kts | 224° |
| 2026-04-25 19:19 | 37.13337 | -3.96368 | 33074 ft | 452 kts | 223° |
| 2026-04-25 19:20 | 37.08939 | -4.01994 | 33079 ft | 452 kts | 224° |
| 2026-04-25 19:20 | 37.04530 | -4.07623 | 33073 ft | 452 kts | 224° |
| 2026-04-25 19:21 | 37.00120 | -4.13244 | 33075 ft | 453 kts | 224° |
| 2026-04-25 19:21 | 36.93497 | -4.21668 | 33070 ft | 453 kts | 224° |
| 2026-04-25 19:22 | 36.89078 | -4.27275 | 33074 ft | 453 kts | 224° |
| 2026-04-25 19:23 | 36.82439 | -4.35676 | 33075 ft | 453 kts | 223° |
| 2026-04-25 19:23 | 36.77417 | -4.40360 | 33082 ft | 451 kts | 211° |
| 2026-04-25 19:23 | 36.74749 | -4.42432 | 33071 ft | 451 kts | 211° |
| 2026-04-25 19:24 | 36.69425 | -4.46548 | 33073 ft | 451 kts | 211° |
| 2026-04-25 19:25 | 36.58822 | -4.54890 | 33075 ft | 451 kts | 212° |
| 2026-04-25 19:25 | 36.53561 | -4.59047 | 33072 ft | 451 kts | 212° |
| 2026-04-25 19:26 | 36.48270 | -4.63223 | 33074 ft | 450 kts | 212° |
| 2026-04-25 19:26 | 36.42975 | -4.67392 | 33071 ft | 450 kts | 212° |
| 2026-04-25 19:27 | 36.38539 | -4.70877 | 33064 ft | 451 kts | 212° |
| 2026-04-25 19:27 | 36.32385 | -4.75703 | 33061 ft | 450 kts | 212° |
| 2026-04-25 19:28 | 36.27099 | -4.79843 | 33060 ft | 450 kts | 212° |
| 2026-04-25 19:28 | 36.21806 | -4.83984 | 33055 ft | 450 kts | 212° |
| 2026-04-25 19:29 | 36.16504 | -4.88126 | 33055 ft | 451 kts | 212° |
| 2026-04-25 19:29 | 36.11212 | -4.92284 | 33057 ft | 451 kts | 213° |
| 2026-04-25 19:30 | 36.05931 | -4.96490 | 33056 ft | 452 kts | 213° |
| 2026-04-25 19:30 | 36.00637 | -5.00697 | 33055 ft | 452 kts | 213° |
| 2026-04-25 19:31 | 35.95334 | -5.04896 | 33040 ft | 453 kts | 214° |
| 2026-04-25 19:31 | 35.90021 | -5.09095 | 33052 ft | 453 kts | 214° |
| 2026-04-25 19:32 | 35.84706 | -5.13289 | 33043 ft | 453 kts | 215° |
| 2026-04-25 19:32 | 35.80410 | -5.16924 | 33049 ft | 450 kts | 219° |
| 2026-04-25 19:33 | 35.74570 | -5.22349 | 33047 ft | 449 kts | 220° |
| 2026-04-25 19:33 | 35.69632 | -5.26962 | 33046 ft | 448 kts | 220° |
| 2026-04-25 19:34 | 35.64620 | -5.31595 | 33046 ft | 448 kts | 219° |
| 2026-04-25 19:34 | 35.59663 | -5.36150 | 33048 ft | 448 kts | 219° |
| 2026-04-25 19:35 | 35.54670 | -5.40723 | 33050 ft | 448 kts | 220° |
| 2026-04-25 19:35 | 35.49670 | -5.45294 | 33052 ft | 449 kts | 220° |
| 2026-04-25 19:36 | 35.44658 | -5.49871 | 33055 ft | 449 kts | 220° |
| 2026-04-25 19:36 | 35.39648 | -5.54439 | 33041 ft | 449 kts | 220° |
| 2026-04-25 19:37 | 35.34632 | -5.59006 | 33039 ft | 449 kts | 220° |
| 2026-04-25 19:37 | 35.29610 | -5.63569 | 33028 ft | 449 kts | 220° |
| 2026-04-25 19:38 | 35.24594 | -5.68121 | 33017 ft | 449 kts | 220° |
| 2026-04-25 19:38 | 35.19574 | -5.72670 | 33016 ft | 448 kts | 220° |
| 2026-04-25 19:39 | 35.14569 | -5.77199 | 33017 ft | 448 kts | 220° |
| 2026-04-25 19:39 | 35.09562 | -5.81720 | 33006 ft | 447 kts | 220° |
| 2026-04-25 19:40 | 35.04576 | -5.86217 | 33011 ft | 445 kts | 220° |
| 2026-04-25 19:40 | 34.99597 | -5.90699 | 33006 ft | 444 kts | 220° |
| 2026-04-25 19:41 | 34.94640 | -5.95158 | 32979 ft | 443 kts | 220° |
| 2026-04-25 19:41 | 34.91357 | -5.98105 | 32984 ft | 442 kts | 220° |
| 2026-04-25 19:42 | 34.84781 | -6.04000 | 32973 ft | 440 kts | 221° |
| 2026-04-25 19:42 | 34.79846 | -6.08416 | 32979 ft | 440 kts | 221° |
| 2026-04-25 19:43 | 34.74909 | -6.12828 | 32978 ft | 440 kts | 221° |
| 2026-04-25 19:43 | 34.69984 | -6.17224 | 32972 ft | 439 kts | 221° |
| 2026-04-25 19:44 | 34.65059 | -6.21611 | 32969 ft | 439 kts | 221° |
| 2026-04-25 19:44 | 34.60134 | -6.25992 | 32965 ft | 439 kts | 221° |
| 2026-04-25 19:45 | 34.55210 | -6.30365 | 32960 ft | 438 kts | 221° |
| 2026-04-25 19:45 | 34.50289 | -6.34729 | 32961 ft | 438 kts | 221° |
| 2026-04-25 19:46 | 34.45375 | -6.39081 | 32955 ft | 438 kts | 221° |
| 2026-04-25 19:46 | 34.40456 | -6.43430 | 32954 ft | 437 kts | 221° |
| 2026-04-25 19:47 | 34.35543 | -6.47768 | 32954 ft | 437 kts | 221° |
| 2026-04-25 19:47 | 34.30623 | -6.52106 | 32946 ft | 437 kts | 221° |
| 2026-04-25 19:48 | 34.25702 | -6.56437 | 32946 ft | 437 kts | 221° |
| 2026-04-25 19:48 | 34.20821 | -6.60730 | 32945 ft | 437 kts | 221° |
| 2026-04-25 19:49 | 34.17534 | -6.63617 | 32944 ft | 437 kts | 221° |
| 2026-04-25 19:49 | 34.10992 | -6.69354 | 32947 ft | 437 kts | 221° |
| 2026-04-25 19:50 | 34.03601 | -6.75800 | 32937 ft | 438 kts | 220° |
| 2026-04-25 19:51 | 33.98566 | -6.79960 | 32936 ft | 439 kts | 219° |
| 2026-04-25 19:51 | 33.93505 | -6.84080 | 32943 ft | 439 kts | 219° |
| 2026-04-25 19:52 | 33.88457 | -6.88203 | 32942 ft | 438 kts | 219° |
| 2026-04-25 19:52 | 33.83426 | -6.92326 | 32945 ft | 437 kts | 219° |
| 2026-04-25 19:53 | 33.78402 | -6.96441 | 32948 ft | 436 kts | 219° |
| 2026-04-25 19:53 | 33.73389 | -7.00541 | 32952 ft | 435 kts | 219° |
| 2026-04-25 19:54 | 33.68381 | -7.04630 | 32958 ft | 435 kts | 218° |
| 2026-04-25 19:54 | 33.63379 | -7.08710 | 32962 ft | 434 kts | 218° |
| 2026-04-25 19:55 | 33.58382 | -7.12779 | 32962 ft | 435 kts | 218° |
| 2026-04-25 19:55 | 33.53375 | -7.16851 | 32965 ft | 435 kts | 218° |
| 2026-04-25 19:56 | 33.48397 | -7.20893 | 32966 ft | 435 kts | 218° |
| 2026-04-25 19:56 | 33.43374 | -7.24966 | 32962 ft | 436 kts | 218° |
| 2026-04-25 19:57 | 33.38343 | -7.29039 | 32967 ft | 437 kts | 218° |
| 2026-04-25 19:57 | 33.33314 | -7.33105 | 32964 ft | 437 kts | 218° |
| 2026-04-25 19:58 | 33.28280 | -7.37170 | 32961 ft | 437 kts | 218° |
| 2026-04-25 19:58 | 33.23237 | -7.41235 | 32962 ft | 437 kts | 218° |
| 2026-04-25 19:59 | 33.18193 | -7.45298 | 32965 ft | 437 kts | 218° |
| 2026-04-25 19:59 | 33.13152 | -7.49351 | 32967 ft | 437 kts | 217° |
| 2026-04-25 20:00 | 33.08010 | -7.53243 | 32963 ft | 438 kts | 214° |
| 2026-04-25 20:00 | 33.03622 | -7.56278 | 32961 ft | 439 kts | 213° |
| 2026-04-25 20:01 | 32.95727 | -7.61756 | 32963 ft | 437 kts | 213° |
| 2026-04-25 20:01 | 32.90490 | -7.65431 | 32959 ft | 437 kts | 214° |
| 2026-04-25 20:02 | 32.85254 | -7.69101 | 32962 ft | 436 kts | 213° |
| 2026-04-25 20:02 | 32.80036 | -7.72779 | 32952 ft | 436 kts | 214° |
| 2026-04-25 20:03 | 32.74827 | -7.76459 | 32952 ft | 435 kts | 213° |
| 2026-04-25 20:03 | 32.69624 | -7.80126 | 32944 ft | 435 kts | 213° |
| 2026-04-25 20:04 | 32.64405 | -7.83778 | 32945 ft | 435 kts | 213° |
| 2026-04-25 20:04 | 32.59180 | -7.87406 | 32974 ft | 439 kts | 213° |
| 2026-04-25 20:05 | 32.56525 | -7.89246 | 33112 ft | 443 kts | 213° |
| 2026-04-25 20:05 | 32.53861 | -7.91092 | 33397 ft | 443 kts | 213° |
| 2026-04-25 20:05 | 32.51209 | -7.92928 | 33845 ft | 439 kts | 213° |
| 2026-04-25 20:05 | 32.48587 | -7.94743 | 34281 ft | 436 kts | 213° |
| 2026-04-25 20:06 | 32.45977 | -7.96549 | 34642 ft | 434 kts | 213° |
| 2026-04-25 20:06 | 32.43362 | -7.98360 | 34861 ft | 435 kts | 213° |
| 2026-04-25 20:06 | 32.38113 | -8.01991 | 34932 ft | 439 kts | 212° |
| 2026-04-25 20:07 | 32.32848 | -8.05623 | 34918 ft | 435 kts | 212° |
| 2026-04-25 20:07 | 32.27646 | -8.09210 | 34926 ft | 432 kts | 212° |
| 2026-04-25 20:08 | 32.22454 | -8.12786 | 34923 ft | 432 kts | 212° |
| 2026-04-25 20:08 | 32.17274 | -8.16351 | 34927 ft | 431 kts | 212° |
| 2026-04-25 20:09 | 32.12081 | -8.19916 | 34920 ft | 431 kts | 211° |
| 2026-04-25 20:09 | 32.06875 | -8.23432 | 34941 ft | 432 kts | 211° |
| 2026-04-25 20:10 | 32.01641 | -8.26934 | 34949 ft | 433 kts | 211° |
| 2026-04-25 20:10 | 31.96387 | -8.30451 | 34947 ft | 435 kts | 211° |
| 2026-04-25 20:11 | 31.91119 | -8.33976 | 34951 ft | 437 kts | 211° |
| 2026-04-25 20:11 | 31.85859 | -8.37493 | 34946 ft | 438 kts | 211° |
| 2026-04-25 20:12 | 31.80556 | -8.41034 | 34945 ft | 439 kts | 211° |
| 2026-04-25 20:12 | 31.76095 | -8.44012 | 34936 ft | 440 kts | 211° |
| 2026-04-25 20:13 | 31.69919 | -8.48128 | 34934 ft | 439 kts | 211° |
| 2026-04-25 20:13 | 31.64596 | -8.51671 | 34937 ft | 439 kts | 210° |
| 2026-04-25 20:14 | 31.59285 | -8.55200 | 34932 ft | 438 kts | 210° |
| 2026-04-25 20:14 | 31.53984 | -8.58718 | 34937 ft | 438 kts | 210° |
| 2026-04-25 20:15 | 31.48681 | -8.62232 | 34932 ft | 437 kts | 210° |
| 2026-04-25 20:15 | 31.43381 | -8.65739 | 34924 ft | 437 kts | 210° |
| 2026-04-25 20:16 | 31.38088 | -8.69240 | 34920 ft | 437 kts | 210° |
| 2026-04-25 20:16 | 31.32795 | -8.72733 | 34916 ft | 437 kts | 210° |
| 2026-04-25 20:17 | 31.27502 | -8.76223 | 34918 ft | 437 kts | 210° |
| 2026-04-25 20:17 | 31.22212 | -8.79705 | 34917 ft | 437 kts | 210° |
| 2026-04-25 20:18 | 31.16915 | -8.83189 | 34912 ft | 437 kts | 210° |
| 2026-04-25 20:18 | 31.11606 | -8.86676 | 34910 ft | 438 kts | 210° |
| 2026-04-25 20:19 | 31.06296 | -8.90159 | 34906 ft | 438 kts | 210° |
| 2026-04-25 20:19 | 31.00975 | -8.93644 | 34902 ft | 439 kts | 210° |
| 2026-04-25 20:20 | 30.95652 | -8.97126 | 34898 ft | 439 kts | 210° |
| 2026-04-25 20:20 | 30.90327 | -9.00603 | 34897 ft | 439 kts | 210° |
| 2026-04-25 20:21 | 30.84998 | -9.04081 | 34887 ft | 439 kts | 210° |
| 2026-04-25 20:21 | 30.79666 | -9.07556 | 34888 ft | 439 kts | 210° |
| 2026-04-25 20:22 | 30.76137 | -9.09854 | 34880 ft | 439 kts | 210° |
| 2026-04-25 20:22 | 30.68998 | -9.14496 | 34876 ft | 439 kts | 210° |
| 2026-04-25 20:23 | 30.63665 | -9.17958 | 34870 ft | 440 kts | 210° |
| 2026-04-25 20:23 | 30.58328 | -9.21418 | 34883 ft | 439 kts | 210° |
| 2026-04-25 20:24 | 30.53035 | -9.24846 | 34860 ft | 437 kts | 210° |
| 2026-04-25 20:24 | 30.47706 | -9.28292 | 34853 ft | 434 kts | 210° |
| 2026-04-25 20:25 | 30.42483 | -9.31667 | 34856 ft | 432 kts | 210° |
| 2026-04-25 20:25 | 30.37253 | -9.35043 | 34859 ft | 429 kts | 210° |
| 2026-04-25 20:26 | 30.32024 | -9.38376 | 34859 ft | 428 kts | 207° |
| 2026-04-25 20:26 | 30.26493 | -9.40928 | 34864 ft | 428 kts | 201° |
| 2026-04-25 20:27 | 30.20890 | -9.43275 | 34861 ft | 429 kts | 201° |
| 2026-04-25 20:27 | 30.15281 | -9.45672 | 34862 ft | 430 kts | 201° |
| 2026-04-25 20:28 | 30.09670 | -9.48107 | 34863 ft | 432 kts | 201° |
| 2026-04-25 20:28 | 30.04042 | -9.50554 | 34862 ft | 433 kts | 201° |
| 2026-04-25 20:29 | 29.98393 | -9.53005 | 34862 ft | 434 kts | 201° |
| 2026-04-25 20:29 | 29.92738 | -9.55456 | 34861 ft | 435 kts | 201° |
| 2026-04-25 20:30 | 29.87072 | -9.57926 | 34860 ft | 435 kts | 202° |
| 2026-04-25 20:30 | 29.81418 | -9.60398 | 34860 ft | 435 kts | 202° |
| 2026-04-25 20:31 | 29.75768 | -9.62862 | 34867 ft | 434 kts | 201° |
| 2026-04-25 20:31 | 29.70129 | -9.65320 | 34871 ft | 433 kts | 201° |
| 2026-04-25 20:32 | 29.64492 | -9.67773 | 34868 ft | 433 kts | 201° |
| 2026-04-25 20:32 | 29.58892 | -9.70205 | 34869 ft | 432 kts | 202° |
| 2026-04-25 20:33 | 29.53263 | -9.72644 | 34870 ft | 432 kts | 202° |
| 2026-04-25 20:33 | 29.49503 | -9.74271 | 34879 ft | 432 kts | 202° |
| 2026-04-25 20:34 | 29.42020 | -9.77510 | 34874 ft | 432 kts | 202° |
| 2026-04-25 20:34 | 29.36409 | -9.79933 | 34882 ft | 431 kts | 202° |
| 2026-04-25 20:35 | 29.30794 | -9.82357 | 34880 ft | 431 kts | 202° |
| 2026-04-25 20:35 | 29.25175 | -9.84779 | 34880 ft | 431 kts | 202° |
| 2026-04-25 20:36 | 29.19562 | -9.87196 | 34879 ft | 431 kts | 202° |
| 2026-04-25 20:36 | 29.13947 | -9.89611 | 34882 ft | 431 kts | 202° |
| 2026-04-25 20:37 | 29.08335 | -9.92022 | 34877 ft | 431 kts | 202° |
| 2026-04-25 20:37 | 29.02722 | -9.94431 | 34889 ft | 431 kts | 202° |
| 2026-04-25 20:38 | 28.97097 | -9.96839 | 34889 ft | 432 kts | 202° |
| 2026-04-25 20:38 | 28.91466 | -9.99237 | 34888 ft | 432 kts | 202° |
| 2026-04-25 20:39 | 28.85825 | -10.01635 | 34887 ft | 433 kts | 202° |
| 2026-04-25 20:39 | 28.82082 | -10.03226 | 34891 ft | 433 kts | 202° |
| 2026-04-25 20:40 | 28.74512 | -10.06440 | 34884 ft | 434 kts | 203° |
| 2026-04-25 20:40 | 28.68887 | -10.08824 | 34885 ft | 434 kts | 203° |
| 2026-04-25 20:41 | 28.63222 | -10.11224 | 34888 ft | 434 kts | 203° |
| 2026-04-25 20:41 | 28.57559 | -10.13621 | 34890 ft | 434 kts | 203° |
| 2026-04-25 20:42 | 28.51894 | -10.16015 | 34885 ft | 435 kts | 203° |
| 2026-04-25 20:42 | 28.46222 | -10.18410 | 34891 ft | 434 kts | 203° |
| 2026-04-25 20:43 | 28.40564 | -10.20796 | 34891 ft | 434 kts | 203° |
| 2026-04-25 20:43 | 28.34890 | -10.23187 | 34876 ft | 435 kts | 203° |
| 2026-04-25 20:44 | 28.29219 | -10.25572 | 34880 ft | 434 kts | 203° |
| 2026-04-25 20:44 | 28.23556 | -10.27951 | 34880 ft | 434 kts | 203° |
| 2026-04-25 20:45 | 28.17895 | -10.30326 | 34876 ft | 434 kts | 203° |
| 2026-04-25 20:45 | 28.12244 | -10.32696 | 34880 ft | 433 kts | 203° |
| 2026-04-25 20:46 | 28.07547 | -10.34664 | 34881 ft | 433 kts | 203° |
| 2026-04-25 20:46 | 28.01905 | -10.37025 | 34880 ft | 432 kts | 203° |
| 2026-04-25 20:47 | 27.95352 | -10.39763 | 34879 ft | 432 kts | 203° |
| 2026-04-25 20:47 | 27.90626 | -10.41737 | 34878 ft | 432 kts | 204° |
| 2026-04-25 20:48 | 27.84988 | -10.44088 | 34876 ft | 432 kts | 204° |
| 2026-04-25 20:48 | 27.79342 | -10.46440 | 34880 ft | 432 kts | 204° |
| 2026-04-25 20:49 | 27.73703 | -10.48787 | 34881 ft | 432 kts | 204° |
| 2026-04-25 20:49 | 27.68091 | -10.51121 | 34889 ft | 432 kts | 204° |
| 2026-04-25 20:50 | 27.62461 | -10.53497 | 34896 ft | 432 kts | 205° |
| 2026-04-25 20:50 | 27.56848 | -10.55924 | 34896 ft | 432 kts | 205° |
| 2026-04-25 20:51 | 27.51235 | -10.58353 | 34900 ft | 432 kts | 205° |
| 2026-04-25 20:51 | 27.45613 | -10.60775 | 34898 ft | 433 kts | 205° |
| 2026-04-25 20:52 | 27.40928 | -10.62788 | 34899 ft | 434 kts | 205° |
| 2026-04-25 20:52 | 27.34331 | -10.65628 | 34896 ft | 435 kts | 205° |
| 2026-04-25 20:53 | 27.28672 | -10.68049 | 34899 ft | 435 kts | 206° |
| 2026-04-25 20:53 | 27.23061 | -10.70445 | 34901 ft | 434 kts | 206° |
| 2026-04-25 20:54 | 27.17373 | -10.72876 | 34907 ft | 434 kts | 206° |
| 2026-04-25 20:54 | 27.11727 | -10.75288 | 34893 ft | 434 kts | 206° |
| 2026-04-25 20:55 | 27.06085 | -10.77695 | 34890 ft | 434 kts | 206° |
| 2026-04-25 20:55 | 27.00448 | -10.80099 | 34888 ft | 433 kts | 206° |
| 2026-04-25 20:56 | 26.94820 | -10.82495 | 34887 ft | 433 kts | 206° |
| 2026-04-25 20:56 | 26.89187 | -10.84891 | 34888 ft | 432 kts | 206° |
| 2026-04-25 20:57 | 26.83563 | -10.87282 | 34888 ft | 432 kts | 207° |
| 2026-04-25 20:57 | 26.77943 | -10.89667 | 34888 ft | 432 kts | 207° |
| 2026-04-25 20:58 | 26.72327 | -10.92047 | 34887 ft | 431 kts | 207° |
| 2026-04-25 20:58 | 26.66718 | -10.94421 | 34890 ft | 431 kts | 207° |
| 2026-04-25 20:59 | 26.61137 | -10.96783 | 34889 ft | 431 kts | 207° |
| 2026-04-25 20:59 | 26.55526 | -10.99155 | 34890 ft | 431 kts | 207° |
| 2026-04-25 21:00 | 26.50822 | -11.01141 | 34888 ft | 432 kts | 207° |
| 2026-04-25 21:01 | 26.41481 | -11.05079 | 34891 ft | 432 kts | 207° |
| 2026-04-25 21:01 | 26.35860 | -11.07447 | 34890 ft | 432 kts | 207° |
| 2026-04-25 21:02 | 26.30230 | -11.09815 | 34888 ft | 432 kts | 207° |
| 2026-04-25 21:02 | 26.24596 | -11.12182 | 34899 ft | 433 kts | 208° |
| 2026-04-25 21:03 | 26.18964 | -11.14547 | 34896 ft | 433 kts | 208° |
| 2026-04-25 21:03 | 26.13321 | -11.16913 | 34906 ft | 433 kts | 208° |
| 2026-04-25 21:04 | 26.07689 | -11.19273 | 34943 ft | 433 kts | 208° |
| 2026-04-25 21:04 | 26.02052 | -11.21631 | 34938 ft | 433 kts | 208° |
| 2026-04-25 21:05 | 25.96409 | -11.23990 | 34944 ft | 433 kts | 208° |
| 2026-04-25 21:05 | 25.90765 | -11.26346 | 34949 ft | 433 kts | 209° |
| 2026-04-25 21:06 | 25.85123 | -11.28697 | 34952 ft | 433 kts | 209° |
| 2026-04-25 21:06 | 25.79484 | -11.31050 | 34955 ft | 433 kts | 209° |
| 2026-04-25 21:07 | 25.73848 | -11.33396 | 34954 ft | 432 kts | 209° |
| 2026-04-25 21:07 | 25.68218 | -11.35738 | 34952 ft | 432 kts | 209° |
| 2026-04-25 21:08 | 25.62586 | -11.38079 | 34951 ft | 433 kts | 209° |
| 2026-04-25 21:08 | 25.56956 | -11.40414 | 34957 ft | 432 kts | 209° |
| 2026-04-25 21:09 | 25.48519 | -11.43913 | 34952 ft | 431 kts | 209° |
| 2026-04-25 21:09 | 25.42899 | -11.46240 | 34965 ft | 430 kts | 210° |
| 2026-04-25 21:10 | 25.37346 | -11.48537 | 34967 ft | 428 kts | 210° |
| 2026-04-25 21:10 | 25.31771 | -11.50841 | 34968 ft | 427 kts | 210° |
| 2026-04-25 21:11 | 25.26210 | -11.53138 | 34970 ft | 426 kts | 210° |
| 2026-04-25 21:11 | 25.20658 | -11.55419 | 34971 ft | 426 kts | 209° |
| 2026-04-25 21:12 | 25.15049 | -11.57566 | 34973 ft | 427 kts | 208° |
| 2026-04-25 21:12 | 25.10340 | -11.59318 | 34970 ft | 426 kts | 208° |
| 2026-04-25 21:13 | 25.03812 | -11.61758 | 34972 ft | 426 kts | 208° |
| 2026-04-25 21:13 | 24.98200 | -11.63868 | 34973 ft | 426 kts | 208° |
| 2026-04-25 21:14 | 24.92589 | -11.65984 | 34972 ft | 427 kts | 208° |
| 2026-04-25 21:14 | 24.86970 | -11.68100 | 34973 ft | 428 kts | 208° |
| 2026-04-25 21:15 | 24.81332 | -11.70221 | 34973 ft | 428 kts | 208° |
| 2026-04-25 21:15 | 24.75684 | -11.72343 | 34973 ft | 429 kts | 208° |
| 2026-04-25 21:16 | 24.70023 | -11.74467 | 34972 ft | 430 kts | 208° |
| 2026-04-25 21:16 | 24.64354 | -11.76593 | 34974 ft | 431 kts | 208° |
| 2026-04-25 21:17 | 24.58680 | -11.78718 | 34974 ft | 431 kts | 208° |
| 2026-04-25 21:17 | 24.53003 | -11.80843 | 34971 ft | 431 kts | 208° |
| 2026-04-25 21:18 | 24.47318 | -11.82967 | 34959 ft | 432 kts | 208° |
| 2026-04-25 21:18 | 24.41629 | -11.85091 | 34950 ft | 432 kts | 208° |
| 2026-04-25 21:19 | 24.35944 | -11.87214 | 34945 ft | 431 kts | 208° |
| 2026-04-25 21:19 | 24.30268 | -11.89329 | 34941 ft | 430 kts | 208° |
| 2026-04-25 21:20 | 24.26478 | -11.90741 | 34940 ft | 429 kts | 209° |
| 2026-04-25 21:20 | 24.18955 | -11.93541 | 34938 ft | 428 kts | 209° |
| 2026-04-25 21:21 | 24.13311 | -11.95637 | 34934 ft | 428 kts | 209° |
| 2026-04-25 21:21 | 24.07677 | -11.97729 | 34939 ft | 427 kts | 209° |
| 2026-04-25 21:22 | 24.02045 | -11.99820 | 34932 ft | 427 kts | 209° |
| 2026-04-25 21:22 | 23.96415 | -12.01909 | 34933 ft | 428 kts | 209° |
| 2026-04-25 21:23 | 23.90777 | -12.03997 | 34936 ft | 428 kts | 209° |
| 2026-04-25 21:23 | 23.85139 | -12.06083 | 34935 ft | 428 kts | 209° |
| 2026-04-25 21:24 | 23.79498 | -12.08169 | 34928 ft | 428 kts | 209° |
| 2026-04-25 21:24 | 23.73851 | -12.10254 | 34928 ft | 428 kts | 209° |
| 2026-04-25 21:25 | 23.68198 | -12.12340 | 34923 ft | 429 kts | 209° |
| 2026-04-25 21:25 | 23.62587 | -12.14410 | 34926 ft | 429 kts | 209° |
| 2026-04-25 21:26 | 23.56940 | -12.16490 | 34928 ft | 428 kts | 209° |
| 2026-04-25 21:26 | 23.51291 | -12.18569 | 34921 ft | 428 kts | 209° |
| 2026-04-25 21:27 | 23.45640 | -12.20648 | 34917 ft | 429 kts | 209° |
| 2026-04-25 21:27 | 23.39990 | -12.22725 | 34919 ft | 429 kts | 209° |
| 2026-04-25 21:28 | 23.34338 | -12.24802 | 34914 ft | 429 kts | 209° |
| 2026-04-25 21:28 | 23.28680 | -12.26883 | 34919 ft | 429 kts | 209° |
| 2026-04-25 21:29 | 23.23024 | -12.28961 | 34920 ft | 429 kts | 209° |
| 2026-04-25 21:29 | 23.17361 | -12.31039 | 34917 ft | 429 kts | 209° |
| 2026-04-25 21:30 | 23.11703 | -12.33114 | 34918 ft | 429 kts | 209° |
| 2026-04-25 21:30 | 23.07003 | -12.34836 | 34918 ft | 429 kts | 209° |
| 2026-04-25 21:31 | 23.01352 | -12.36904 | 34916 ft | 429 kts | 209° |
| 2026-04-25 21:31 | 22.95697 | -12.38971 | 34919 ft | 429 kts | 209° |
| 2026-04-25 21:32 | 22.90042 | -12.41038 | 34917 ft | 428 kts | 209° |
| 2026-04-25 21:32 | 22.84398 | -12.43100 | 34915 ft | 428 kts | 209° |
| 2026-04-25 21:33 | 22.78756 | -12.45158 | 34919 ft | 428 kts | 209° |
| 2026-04-25 21:33 | 22.73230 | -12.47437 | 34912 ft | 420 kts | 215° |
| 2026-04-25 21:34 | 22.67972 | -12.50160 | 34910 ft | 418 kts | 216° |
| 2026-04-25 21:34 | 22.62737 | -12.52913 | 34914 ft | 419 kts | 216° |
| 2026-04-25 21:35 | 22.57471 | -12.55647 | 34900 ft | 420 kts | 216° |
| 2026-04-25 21:35 | 22.52189 | -12.58362 | 34907 ft | 420 kts | 216° |
| 2026-04-25 21:36 | 22.46908 | -12.61066 | 34904 ft | 420 kts | 216° |
| 2026-04-25 21:36 | 22.41630 | -12.63763 | 34909 ft | 419 kts | 216° |
| 2026-04-25 21:37 | 22.37245 | -12.66004 | 34908 ft | 420 kts | 216° |
| 2026-04-25 21:37 | 22.31075 | -12.69155 | 34906 ft | 419 kts | 216° |
| 2026-04-25 21:38 | 22.25834 | -12.71829 | 34910 ft | 419 kts | 216° |
| 2026-04-25 21:38 | 22.20562 | -12.74515 | 34905 ft | 419 kts | 216° |
| 2026-04-25 21:39 | 22.15288 | -12.77202 | 34898 ft | 419 kts | 216° |
| 2026-04-25 21:39 | 22.10010 | -12.79889 | 34897 ft | 419 kts | 216° |
| 2026-04-25 21:40 | 22.04738 | -12.82570 | 34899 ft | 419 kts | 216° |
| 2026-04-25 21:40 | 21.99463 | -12.85250 | 34897 ft | 419 kts | 216° |
| 2026-04-25 21:41 | 21.94194 | -12.87924 | 34896 ft | 419 kts | 216° |
| 2026-04-25 21:41 | 21.88920 | -12.90600 | 34903 ft | 419 kts | 216° |
| 2026-04-25 21:42 | 21.83645 | -12.93274 | 34901 ft | 419 kts | 215° |
| 2026-04-25 21:42 | 21.78364 | -12.95949 | 34894 ft | 419 kts | 215° |
| 2026-04-25 21:43 | 21.73081 | -12.98622 | 34899 ft | 420 kts | 215° |
| 2026-04-25 21:43 | 21.67796 | -13.01294 | 34898 ft | 420 kts | 215° |
| 2026-04-25 21:44 | 21.62501 | -13.03968 | 34896 ft | 421 kts | 215° |
| 2026-04-25 21:45 | 21.54548 | -13.07983 | 34887 ft | 421 kts | 215° |
| 2026-04-25 21:45 | 21.49241 | -13.10658 | 34895 ft | 421 kts | 215° |
| 2026-04-25 21:46 | 21.43940 | -13.13329 | 34898 ft | 421 kts | 215° |
| 2026-04-25 21:46 | 21.38638 | -13.15997 | 34899 ft | 421 kts | 215° |
| 2026-04-25 21:47 | 21.33333 | -13.18665 | 34894 ft | 421 kts | 215° |
| 2026-04-25 21:47 | 21.28026 | -13.21331 | 34887 ft | 421 kts | 215° |
| 2026-04-25 21:48 | 21.22750 | -13.23980 | 34891 ft | 422 kts | 215° |
| 2026-04-25 21:48 | 21.17438 | -13.26645 | 34889 ft | 421 kts | 215° |
| 2026-04-25 21:49 | 21.12127 | -13.29307 | 34892 ft | 422 kts | 215° |
| 2026-04-25 21:49 | 21.06810 | -13.31972 | 34892 ft | 422 kts | 215° |
| 2026-04-25 21:50 | 21.01486 | -13.34636 | 34885 ft | 423 kts | 214° |
| 2026-04-25 21:50 | 20.96157 | -13.37302 | 34890 ft | 423 kts | 214° |
| 2026-04-25 21:51 | 20.90829 | -13.39964 | 34888 ft | 423 kts | 214° |
| 2026-04-25 21:51 | 20.85494 | -13.42628 | 34891 ft | 423 kts | 214° |
| 2026-04-25 21:52 | 20.80155 | -13.45292 | 34889 ft | 423 kts | 214° |
| 2026-04-25 21:52 | 20.74812 | -13.47956 | 34892 ft | 424 kts | 214° |
| 2026-04-25 21:53 | 20.69465 | -13.50619 | 34889 ft | 424 kts | 214° |
| 2026-04-25 21:53 | 20.64116 | -13.53282 | 34888 ft | 424 kts | 214° |
| 2026-04-25 21:54 | 20.58759 | -13.55947 | 34891 ft | 425 kts | 214° |
| 2026-04-25 21:54 | 20.53402 | -13.58609 | 34888 ft | 425 kts | 214° |
| 2026-04-25 21:55 | 20.48048 | -13.61266 | 34887 ft | 425 kts | 214° |
| 2026-04-25 21:55 | 20.42689 | -13.63926 | 34887 ft | 425 kts | 214° |
| 2026-04-25 21:56 | 20.37321 | -13.66588 | 34885 ft | 425 kts | 214° |
| 2026-04-25 21:56 | 20.31986 | -13.69232 | 34879 ft | 425 kts | 214° |
| 2026-04-25 21:57 | 20.26619 | -13.71890 | 34881 ft | 426 kts | 213° |
| 2026-04-25 21:57 | 20.21245 | -13.74549 | 34880 ft | 426 kts | 213° |
| 2026-04-25 21:58 | 20.15868 | -13.77206 | 34884 ft | 426 kts | 213° |
| 2026-04-25 21:58 | 20.10482 | -13.79867 | 34882 ft | 427 kts | 213° |
| 2026-04-25 21:59 | 20.05092 | -13.82529 | 34879 ft | 427 kts | 213° |
| 2026-04-25 21:59 | 19.99703 | -13.85187 | 34880 ft | 427 kts | 213° |
| 2026-04-25 22:00 | 19.91618 | -13.89170 | 34879 ft | 427 kts | 213° |
| 2026-04-25 22:00 | 19.86260 | -13.91808 | 34881 ft | 427 kts | 213° |
| 2026-04-25 22:01 | 19.80872 | -13.94459 | 34879 ft | 427 kts | 213° |
| 2026-04-25 22:01 | 19.76356 | -13.96679 | 34877 ft | 427 kts | 213° |
| 2026-04-25 22:02 | 19.70346 | -14.00117 | 34885 ft | 421 kts | 218° |
| 2026-04-25 22:02 | 19.65284 | -14.03229 | 34878 ft | 421 kts | 218° |
| 2026-04-25 22:03 | 19.60214 | -14.06335 | 34879 ft | 421 kts | 218° |
| 2026-04-25 22:03 | 19.55135 | -14.09423 | 34882 ft | 421 kts | 218° |
| 2026-04-25 22:04 | 19.50049 | -14.12506 | 34881 ft | 421 kts | 218° |
| 2026-04-25 22:04 | 19.44958 | -14.15585 | 34879 ft | 421 kts | 218° |
| 2026-04-25 22:05 | 19.39864 | -14.18663 | 34878 ft | 422 kts | 218° |
| 2026-04-25 22:05 | 19.34763 | -14.21743 | 34880 ft | 422 kts | 217° |
| 2026-04-25 22:06 | 19.29653 | -14.24828 | 34871 ft | 423 kts | 217° |
| 2026-04-25 22:06 | 19.24539 | -14.27915 | 34869 ft | 424 kts | 217° |
| 2026-04-25 22:07 | 19.20275 | -14.30485 | 34870 ft | 424 kts | 217° |
| 2026-04-25 22:07 | 19.14306 | -14.34080 | 34869 ft | 425 kts | 217° |
| 2026-04-25 22:08 | 19.09167 | -14.37172 | 34870 ft | 425 kts | 217° |
| 2026-04-25 22:08 | 19.04011 | -14.40272 | 34873 ft | 426 kts | 217° |
| 2026-04-25 22:09 | 18.98859 | -14.43369 | 34871 ft | 427 kts | 217° |
| 2026-04-25 22:09 | 18.93693 | -14.46474 | 34862 ft | 427 kts | 217° |
| 2026-04-25 22:10 | 18.88531 | -14.49572 | 34860 ft | 427 kts | 217° |
| 2026-04-25 22:10 | 18.83358 | -14.52672 | 34857 ft | 428 kts | 217° |
| 2026-04-25 22:11 | 18.78181 | -14.55775 | 34861 ft | 428 kts | 217° |
| 2026-04-25 22:11 | 18.72997 | -14.58880 | 34863 ft | 428 kts | 217° |
| 2026-04-25 22:12 | 18.67811 | -14.61984 | 34861 ft | 429 kts | 217° |
| 2026-04-25 22:12 | 18.63497 | -14.64564 | 34862 ft | 429 kts | 217° |
| 2026-04-25 22:13 | 18.57425 | -14.68192 | 34863 ft | 429 kts | 217° |
| 2026-04-25 22:13 | 18.52232 | -14.71293 | 34859 ft | 429 kts | 217° |
| 2026-04-25 22:14 | 18.47045 | -14.74388 | 34860 ft | 428 kts | 217° |
| 2026-04-25 22:14 | 18.41847 | -14.77488 | 34863 ft | 428 kts | 217° |
| 2026-04-25 22:15 | 18.36694 | -14.80557 | 34862 ft | 429 kts | 216° |
| 2026-04-25 22:16 | 18.28900 | -14.85202 | 34860 ft | 429 kts | 217° |
| 2026-04-25 22:16 | 18.23697 | -14.88298 | 34846 ft | 430 kts | 216° |
| 2026-04-25 22:17 | 18.18495 | -14.91389 | 34842 ft | 430 kts | 216° |
| 2026-04-25 22:17 | 18.13286 | -14.94481 | 34844 ft | 430 kts | 216° |
| 2026-04-25 22:18 | 18.08084 | -14.97570 | 34835 ft | 430 kts | 216° |
| 2026-04-25 22:18 | 18.02883 | -15.00656 | 34841 ft | 429 kts | 216° |
| 2026-04-25 22:19 | 17.97680 | -15.03741 | 34843 ft | 429 kts | 216° |
| 2026-04-25 22:19 | 17.92476 | -15.06825 | 34837 ft | 430 kts | 216° |
| 2026-04-25 22:20 | 17.87263 | -15.09913 | 34850 ft | 431 kts | 216° |
| 2026-04-25 22:20 | 17.82935 | -15.12504 | 34840 ft | 430 kts | 219° |
| 2026-04-25 22:21 | 17.78072 | -15.16098 | 34841 ft | 427 kts | 223° |
| 2026-04-25 22:21 | 17.73287 | -15.19805 | 34834 ft | 428 kts | 222° |
| 2026-04-25 22:22 | 17.68460 | -15.23470 | 34831 ft | 429 kts | 221° |
| 2026-04-25 22:22 | 17.63608 | -15.27120 | 34837 ft | 429 kts | 221° |
| 2026-04-25 22:23 | 17.58753 | -15.30778 | 34833 ft | 429 kts | 221° |
| 2026-04-25 22:23 | 17.53906 | -15.34430 | 34832 ft | 429 kts | 222° |
| 2026-04-25 22:24 | 17.49053 | -15.38085 | 34833 ft | 429 kts | 221° |
| 2026-04-25 22:24 | 17.44210 | -15.41732 | 34822 ft | 429 kts | 221° |
| 2026-04-25 22:25 | 17.39396 | -15.45355 | 34807 ft | 429 kts | 221° |
| 2026-04-25 22:25 | 17.34552 | -15.48999 | 34833 ft | 428 kts | 221° |
| 2026-04-25 22:26 | 17.29706 | -15.52639 | 34827 ft | 428 kts | 221° |
| 2026-04-25 22:26 | 17.24867 | -15.56272 | 34833 ft | 428 kts | 221° |
| 2026-04-25 22:27 | 17.20017 | -15.59911 | 34818 ft | 429 kts | 221° |
| 2026-04-25 22:27 | 17.15174 | -15.63545 | 34816 ft | 429 kts | 221° |
| 2026-04-25 22:28 | 17.10320 | -15.67183 | 34822 ft | 430 kts | 221° |
| 2026-04-25 22:28 | 17.05460 | -15.70825 | 34833 ft | 430 kts | 221° |
| 2026-04-25 22:29 | 17.00593 | -15.74473 | 34821 ft | 431 kts | 221° |
| 2026-04-25 22:29 | 16.95723 | -15.78121 | 34829 ft | 431 kts | 221° |
| 2026-04-25 22:30 | 16.88411 | -15.83595 | 34819 ft | 431 kts | 221° |
| 2026-04-25 22:30 | 16.84349 | -15.86633 | 34816 ft | 432 kts | 221° |
| 2026-04-25 22:31 | 16.78634 | -15.90904 | 34822 ft | 432 kts | 221° |
| 2026-04-25 22:31 | 16.73742 | -15.94559 | 34816 ft | 433 kts | 221° |
| 2026-04-25 22:32 | 16.68876 | -15.98192 | 34821 ft | 434 kts | 221° |
| 2026-04-25 22:32 | 16.63967 | -16.01855 | 34831 ft | 434 kts | 221° |
| 2026-04-25 22:33 | 16.59048 | -16.05524 | 34808 ft | 435 kts | 221° |
| 2026-04-25 22:33 | 16.54125 | -16.09192 | 34813 ft | 435 kts | 220° |
| 2026-04-25 22:34 | 16.49196 | -16.12859 | 34807 ft | 436 kts | 220° |
| 2026-04-25 22:34 | 16.44255 | -16.16529 | 34821 ft | 436 kts | 220° |
| 2026-04-25 22:35 | 16.39310 | -16.20200 | 34831 ft | 436 kts | 220° |
| 2026-04-25 22:35 | 16.34370 | -16.23867 | 34820 ft | 437 kts | 220° |
| 2026-04-25 22:36 | 16.29419 | -16.27541 | 34826 ft | 437 kts | 220° |
| 2026-04-25 22:36 | 16.24509 | -16.31178 | 34804 ft | 423 kts | 220° |
| 2026-04-25 22:37 | 16.22140 | -16.32928 | 34649 ft | 413 kts | 220° |
| 2026-04-25 22:37 | 16.19822 | -16.34643 | 34386 ft | 405 kts | 221° |
| 2026-04-25 22:37 | 16.17538 | -16.36335 | 33993 ft | 401 kts | 221° |
| 2026-04-25 22:37 | 16.15280 | -16.38010 | 33628 ft | 397 kts | 221° |
| 2026-04-25 22:38 | 16.13039 | -16.39672 | 33249 ft | 394 kts | 221° |
| 2026-04-25 22:38 | 16.10818 | -16.41318 | 32877 ft | 391 kts | 221° |
| 2026-04-25 22:38 | 16.08637 | -16.42933 | 32509 ft | 388 kts | 221° |
| 2026-04-25 22:38 | 16.06417 | -16.44575 | 32131 ft | 385 kts | 221° |
| 2026-04-25 22:39 | 16.04254 | -16.46142 | 31741 ft | 385 kts | 219° |
| 2026-04-25 22:39 | 16.01905 | -16.47594 | 31261 ft | 388 kts | 215° |
| 2026-04-25 22:39 | 15.99538 | -16.48921 | 30881 ft | 387 kts | 214° |
| 2026-04-25 22:39 | 15.97157 | -16.50220 | 30508 ft | 385 kts | 214° |
| 2026-04-25 22:40 | 15.94793 | -16.51511 | 30142 ft | 383 kts | 214° |
| 2026-04-25 22:40 | 15.92479 | -16.52788 | 29782 ft | 380 kts | 214° |
| 2026-04-25 22:40 | 15.90158 | -16.54083 | 29422 ft | 377 kts | 214° |
| 2026-04-25 22:40 | 15.87852 | -16.55379 | 29047 ft | 375 kts | 214° |
| 2026-04-25 22:41 | 15.85571 | -16.56667 | 28679 ft | 372 kts | 214° |
| 2026-04-25 22:41 | 15.83307 | -16.57947 | 28312 ft | 369 kts | 214° |
| 2026-04-25 22:41 | 15.81061 | -16.59219 | 27951 ft | 366 kts | 214° |
| 2026-04-25 22:41 | 15.78834 | -16.60482 | 27592 ft | 364 kts | 213° |
| 2026-04-25 22:42 | 15.76617 | -16.61739 | 27230 ft | 361 kts | 213° |
| 2026-04-25 22:42 | 15.74422 | -16.62983 | 26876 ft | 359 kts | 213° |
| 2026-04-25 22:42 | 15.72238 | -16.64222 | 26518 ft | 356 kts | 213° |
| 2026-04-25 22:42 | 15.70069 | -16.65448 | 26166 ft | 353 kts | 212° |
| 2026-04-25 22:43 | 15.67919 | -16.66661 | 25834 ft | 351 kts | 212° |
| 2026-04-25 22:43 | 15.65780 | -16.67869 | 25482 ft | 349 kts | 212° |
| 2026-04-25 22:43 | 15.63658 | -16.69069 | 25140 ft | 346 kts | 212° |
| 2026-04-25 22:43 | 15.61548 | -16.70262 | 24795 ft | 344 kts | 211° |
| 2026-04-25 22:44 | 15.59455 | -16.71446 | 24455 ft | 342 kts | 211° |
| 2026-04-25 22:44 | 15.57372 | -16.72624 | 24118 ft | 340 kts | 211° |
| 2026-04-25 22:44 | 15.55304 | -16.73794 | 23780 ft | 337 kts | 211° |
| 2026-04-25 22:44 | 15.53277 | -16.74941 | 23459 ft | 335 kts | 211° |
| 2026-04-25 22:45 | 15.51240 | -16.76096 | 23131 ft | 333 kts | 211° |
| 2026-04-25 22:45 | 15.49214 | -16.77245 | 22793 ft | 331 kts | 211° |
| 2026-04-25 22:45 | 15.47201 | -16.78383 | 22461 ft | 328 kts | 211° |
| 2026-04-25 22:45 | 15.45204 | -16.79512 | 22143 ft | 326 kts | 211° |
| 2026-04-25 22:46 | 15.43219 | -16.80633 | 21819 ft | 324 kts | 211° |
| 2026-04-25 22:46 | 15.41243 | -16.81749 | 21490 ft | 322 kts | 211° |
| 2026-04-25 22:46 | 15.39283 | -16.82855 | 21165 ft | 320 kts | 211° |
| 2026-04-25 22:46 | 15.37335 | -16.83955 | 20865 ft | 318 kts | 211° |
| 2026-04-25 22:47 | 15.35402 | -16.85045 | 20550 ft | 315 kts | 211° |
| 2026-04-25 22:47 | 15.33479 | -16.86129 | 20242 ft | 313 kts | 211° |
| 2026-04-25 22:47 | 15.31571 | -16.87199 | 19927 ft | 311 kts | 210° |
| 2026-04-25 22:47 | 15.29540 | -16.87957 | 19714 ft | 310 kts | 197° |
| 2026-04-25 22:48 | 15.27439 | -16.88470 | 19416 ft | 311 kts | 196° |
| 2026-04-25 22:48 | 15.25315 | -16.88956 | 19121 ft | 314 kts | 196° |
| 2026-04-25 22:48 | 15.23150 | -16.89454 | 18815 ft | 323 kts | 196° |
| 2026-04-25 22:48 | 15.20952 | -16.89968 | 18491 ft | 322 kts | 196° |
| 2026-04-25 22:49 | 15.18775 | -16.90486 | 18163 ft | 320 kts | 197° |
| 2026-04-25 22:49 | 15.16617 | -16.91005 | 17841 ft | 317 kts | 197° |
| 2026-04-25 22:49 | 15.14476 | -16.91523 | 17525 ft | 315 kts | 197° |
| 2026-04-25 22:49 | 15.12354 | -16.92039 | 17205 ft | 312 kts | 197° |
| 2026-04-25 22:50 | 15.10241 | -16.92555 | 16896 ft | 310 kts | 197° |
| 2026-04-25 22:50 | 15.08156 | -16.93065 | 16585 ft | 307 kts | 196° |
| 2026-04-25 22:50 | 15.06082 | -16.93572 | 16277 ft | 305 kts | 196° |
| 2026-04-25 22:50 | 15.04027 | -16.94075 | 15972 ft | 303 kts | 196° |
| 2026-04-25 22:51 | 15.01985 | -16.94575 | 15666 ft | 301 kts | 196° |
| 2026-04-25 22:51 | 14.99956 | -16.95071 | 15368 ft | 298 kts | 195° |
| 2026-04-25 22:51 | 14.97946 | -16.95563 | 15070 ft | 296 kts | 195° |
| 2026-04-25 22:51 | 14.95948 | -16.96052 | 14771 ft | 294 kts | 195° |
| 2026-04-25 22:52 | 14.93970 | -16.96535 | 14475 ft | 292 kts | 195° |
| 2026-04-25 22:52 | 14.91999 | -16.97018 | 14182 ft | 290 kts | 195° |
| 2026-04-25 22:52 | 14.90009 | -16.97293 | 13886 ft | 290 kts | 183° |
| 2026-04-25 22:52 | 14.88677 | -16.97291 | 13703 ft | 288 kts | 181° |
| 2026-04-25 22:53 | 14.86005 | -16.97205 | 13313 ft | 286 kts | 180° |
| 2026-04-25 22:53 | 14.84022 | -16.97147 | 13019 ft | 284 kts | 180° |
| 2026-04-25 22:53 | 14.82050 | -16.97109 | 12725 ft | 282 kts | 180° |
| 2026-04-25 22:53 | 14.80092 | -16.97084 | 12435 ft | 281 kts | 180° |
| 2026-04-25 22:54 | 14.78148 | -16.97064 | 12144 ft | 279 kts | 180° |
| 2026-04-25 22:54 | 14.76213 | -16.97046 | 11852 ft | 277 kts | 180° |
| 2026-04-25 22:54 | 14.74276 | -16.97030 | 11564 ft | 281 kts | 180° |
| 2026-04-25 22:54 | 14.72332 | -16.97013 | 11271 ft | 285 kts | 180° |
| 2026-04-25 22:55 | 14.70333 | -16.96996 | 10965 ft | 290 kts | 180° |
| 2026-04-25 22:55 | 14.68298 | -16.96977 | 10645 ft | 295 kts | 180° |
| 2026-04-25 22:55 | 14.66235 | -16.96959 | 10331 ft | 296 kts | 180° |
| 2026-04-25 22:55 | 14.64175 | -16.96941 | 10008 ft | 294 kts | 180° |
| 2026-04-25 22:56 | 14.62139 | -16.96924 | 9686 ft | 292 kts | 180° |
| 2026-04-25 22:56 | 14.60115 | -16.96905 | 9374 ft | 290 kts | 180° |
| 2026-04-25 22:56 | 14.58106 | -16.96887 | 9061 ft | 288 kts | 180° |
| 2026-04-25 22:56 | 14.56109 | -16.96871 | 8755 ft | 286 kts | 180° |
| 2026-04-25 22:57 | 14.54133 | -16.96854 | 8586 ft | 277 kts | 180° |
| 2026-04-25 22:57 | 14.52265 | -16.96838 | 8490 ft | 261 kts | 180° |
| 2026-04-25 22:57 | 14.50497 | -16.96823 | 8374 ft | 247 kts | 180° |
| 2026-04-25 22:57 | 14.48829 | -16.96808 | 8177 ft | 234 kts | 180° |
| 2026-04-25 22:58 | 14.47218 | -16.96793 | 7761 ft | 231 kts | 180° |
| 2026-04-25 22:58 | 14.45611 | -16.96779 | 7297 ft | 230 kts | 180° |
| 2026-04-25 22:58 | 14.44019 | -16.96764 | 6943 ft | 226 kts | 180° |
| 2026-04-25 22:58 | 14.42439 | -16.96753 | 6677 ft | 228 kts | 180° |
| 2026-04-25 22:59 | 14.40880 | -16.97030 | 6400 ft | 230 kts | 207° |
| 2026-04-25 22:59 | 14.39642 | -16.98029 | 6181 ft | 226 kts | 230° |
| 2026-04-25 22:59 | 14.38789 | -16.99366 | 5926 ft | 224 kts | 248° |
| 2026-04-25 22:59 | 14.38265 | -17.00871 | 5689 ft | 223 kts | 259° |
| 2026-04-25 23:00 | 14.38014 | -17.02441 | 5451 ft | 221 kts | 266° |
| 2026-04-25 23:00 | 14.37933 | -17.04020 | 5205 ft | 221 kts | 278° |
| 2026-04-25 23:00 | 14.38389 | -17.05479 | 4972 ft | 216 kts | 304° |
| 2026-04-25 23:00 | 14.39462 | -17.06487 | 4724 ft | 210 kts | 341° |
| 2026-04-25 23:01 | 14.40886 | -17.06702 | 4537 ft | 206 kts | 354° |
| 2026-04-25 23:01 | 14.42303 | -17.06933 | 4295 ft | 206 kts | 352° |
| 2026-04-25 23:01 | 14.43724 | -17.07050 | 4073 ft | 203 kts | 358° |
| 2026-04-25 23:01 | 14.45108 | -17.07077 | 3862 ft | 195 kts | 359° |
| 2026-04-25 23:02 | 14.46410 | -17.07089 | 3777 ft | 180 kts | 359° |
| 2026-04-25 23:02 | 14.47643 | -17.07100 | 3714 ft | 179 kts | 359° |
| 2026-04-25 23:02 | 14.48908 | -17.07109 | 3496 ft | 181 kts | 359° |
| 2026-04-25 23:02 | 14.50148 | -17.07122 | 3259 ft | 175 kts | 359° |
| 2026-04-25 23:03 | 14.51349 | -17.07132 | 3028 ft | 170 kts | 359° |
| 2026-04-25 23:03 | 14.52521 | -17.07133 | 2811 ft | 164 kts | 360° |
| 2026-04-25 23:03 | 14.53621 | -17.07138 | 2588 ft | 152 kts | 358° |
| 2026-04-25 23:03 | 14.54671 | -17.07162 | 2426 ft | 147 kts | 358° |
| 2026-04-25 23:04 | 14.55693 | -17.07178 | 2232 ft | 146 kts | 358° |
| 2026-04-25 23:04 | 14.56362 | -17.07184 | 2092 ft | 144 kts | 359° |
| 2026-04-25 23:04 | 14.57717 | -17.07191 | 1821 ft | 148 kts | 359° |
| 2026-04-25 23:04 | 14.58744 | -17.07199 | 1626 ft | 147 kts | 359° |
| 2026-04-25 23:05 | 14.59773 | -17.07213 | 1430 ft | 149 kts | 358° |
| 2026-04-25 23:05 | 14.60805 | -17.07226 | 1233 ft | 147 kts | 359° |
| 2026-04-25 23:05 | 14.61830 | -17.07229 | 1038 ft | 147 kts | 360° |
| 2026-04-25 23:05 | 14.62860 | -17.07235 | 852 ft | 149 kts | 359° |
| 2026-04-25 23:06 | 14.63892 | -17.07249 | 663 ft | 149 kts | 359° |
| 2026-04-25 23:06 | 14.64926 | -17.07261 | 455 ft | 149 kts | 359° |
| 2026-04-25 23:06 | 14.65953 | -17.07270 | 299 ft | 145 kts | 359° |
| 2026-04-25 23:06 | 14.66856 | -17.07281 | 298 ft | 109 kts | 358° |
| 2026-04-25 23:07 | 14.67463 | -17.07282 | 289 ft | 65 kts | 359° |
| 2026-04-25 23:07 | 14.67867 | -17.07289 | 282 ft | 53 kts | 0° |
| 2026-04-25 23:07 | 14.68180 | -17.07292 | 277 ft | 41 kts | 359° |
| 2026-04-25 23:07 | 14.68454 | -17.07295 | 270 ft | 35 kts | 0° |
| 2026-04-25 23:08 | 14.68569 | -17.07241 | 266 ft | 12 kts | 77° |
| 2026-04-25 23:08 | 14.68571 | -17.07157 | 264 ft | 12 kts | 94° |
| 2026-04-25 23:08 | 14.68534 | -17.07109 | 264 ft | 9 kts | 169° |
| 2026-04-25 23:08 | 14.68472 | -17.07105 | 266 ft | 9 kts | 179° |
| 2026-04-25 23:09 | 14.68403 | -17.07104 | 268 ft | 12 kts | 179° |
| 2026-04-25 23:09 | 14.68320 | -17.07101 | 271 ft | 12 kts | 179° |
| 2026-04-25 23:09 | 14.68238 | -17.07103 | 275 ft | 12 kts | 179° |
| 2026-04-25 23:09 | 14.68157 | -17.07101 | 278 ft | 11 kts | 179° |
| 2026-04-25 23:10 | 14.68079 | -17.07100 | 283 ft | 11 kts | 179° |
| 2026-04-25 23:10 | 14.68034 | -17.07099 | 280 ft | 11 kts | 179° |
| 2026-04-25 23:10 | 14.67959 | -17.07098 | 286 ft | 11 kts | 177° |
| 2026-04-25 23:10 | 14.67883 | -17.07099 | 283 ft | 12 kts | 181° |
| 2026-04-25 23:11 | 14.67795 | -17.07096 | 286 ft | 13 kts | 179° |
| 2026-04-25 23:11 | 14.67705 | -17.07097 | 288 ft | 13 kts | 179° |
| 2026-04-25 23:11 | 14.67618 | -17.07096 | 290 ft | 12 kts | 179° |
| 2026-04-25 23:11 | 14.67544 | -17.07073 | 290 ft | 11 kts | 124° |
| 2026-04-25 23:12 | 14.67519 | -17.06999 | 291 ft | 11 kts | 134° |
| 2026-04-25 23:12 | 14.67447 | -17.06982 | 296 ft | 11 kts | 179° |
| 2026-04-25 23:12 | 14.67368 | -17.06981 | 295 ft | 12 kts | 179° |
| 2026-04-25 23:12 | 14.67289 | -17.06980 | 292 ft | 11 kts | 179° |
| 2026-04-25 23:13 | 14.67219 | -17.06976 | 291 ft | 8 kts | 159° |
| 2026-04-25 23:13 | 14.67182 | -17.06938 | 291 ft | 8 kts | 129° |
| 2026-04-25 23:13 | 14.67153 | -17.06893 | 291 ft | 7 kts | 123° |
| 2026-04-25 23:13 | 14.67135 | -17.06862 | 292 ft | 3 kts | 118° |
| 2026-04-25 23:14 | 14.67129 | -17.06854 | 291 ft | 0 kts | 122° |